Time;durP1;ratioP1;P1;durP2;ratioP2;P2;SDS_P1;SDS_P2;PMS_P1;PMS_P2;Temp;Humidity;BMP_temperature;BMP_pressure;BME280_temperature;BME280_humidity;BME280_pressure;Samples;Min_cycle;Max_cycle;Signal;HPM_P1;HPM_P2
2023/11/17 00:02:14;;;;;;;;;28.00;26.75;;;;;;;;6491367;46;8980;-64
2023/11/17 00:08:16;;;;;;;;;36.25;31.00;;;;;;;;6494295;39;8893;-64
2023/11/17 00:14:19;;;;;;;;;28.25;24.50;;;;;;;;6494361;39;8912;-63
2023/11/17 00:20:22;;;;;;;;;26.00;24.00;;;;;;;;6492982;46;8866;-63
2023/11/17 00:26:25;;;;;;;;;26.00;22.00;;;;;;;;6494097;46;8826;-64
2023/11/17 00:32:33;;;;;;;;;23.75;23.75;;;;;;;;6493388;46;8952;-64
2023/11/17 00:38:36;;;;;;;;;29.75;28.75;;;;;;;;6493403;46;8822;-63
2023/11/17 00:44:38;;;;;;;;;27.00;23.75;;;;;;;;6493633;39;8866;-63
2023/11/17 00:50:41;;;;;;;;;23.00;17.75;;;;;;;;6493115;39;9024;-64
2023/11/17 00:56:45;;;;;;;;;23.50;21.75;;;;;;;;6492194;39;8890;-63
2023/11/17 01:02:47;;;;;;;;;26.00;24.25;;;;;;;;6489923;46;9133;-64
2023/11/17 01:08:50;;;;;;;;;19.50;17.00;;;;;;;;6491905;46;8874;-67
2023/11/17 01:14:52;;;;;;;;;23.00;21.00;;;;;;;;6490508;39;9533;-64
2023/11/17 01:20:54;;;;;;;;;21.75;20.00;;;;;;;;6492013;31;9689;-63
2023/11/17 01:26:56;;;;;;;;;22.50;22.50;;;;;;;;6491394;39;9541;-63
2023/11/17 01:32:58;;;;;;;;;21.25;20.50;;;;;;;;6491648;31;8881;-63
2023/11/17 01:39:01;;;;;;;;;17.50;17.50;;;;;;;;6491427;39;9013;-65
2023/11/17 01:45:08;;;;;;;;;17.00;16.00;;;;;;;;6491627;39;9014;-63
2023/11/17 01:51:12;;;;;;;;;18.75;18.75;;;;;;;;6491521;39;9581;-64
2023/11/17 01:57:17;;;;;;;;;23.75;22.00;;;;;;;;6491378;39;8834;-64
2023/11/17 02:03:20;;;;;;;;;20.00;17.00;;;;;;;;6490334;39;8957;-63
2023/11/17 02:09:50;;;;;;;;;14.00;12.75;;;;;;;;6491742;31;8861;-64
2023/11/17 02:15:55;;;;;;;;;21.75;21.00;;;;;;;;6490186;46;8913;-64
2023/11/17 02:22:06;;;;;;;;;18.50;17.00;;;;;;;;6490297;39;8897;-63
2023/11/17 02:28:34;;;;;;;;;22.25;19.50;;;;;;;;6490295;39;8956;-64
2023/11/17 02:34:42;;;;;;;;;22.25;21.00;;;;;;;;6490078;39;8854;-63
2023/11/17 02:40:45;;;;;;;;;22.75;21.75;;;;;;;;6490232;46;8913;-64
2023/11/17 02:46:58;;;;;;;;;23.50;21.75;;;;;;;;6490737;31;8873;-64
2023/11/17 02:53:23;;;;;;;;;18.50;16.75;;;;;;;;6491303;46;9013;-63
2023/11/17 02:59:27;;;;;;;;;22.50;21.50;;;;;;;;6489586;39;8878;-63
2023/11/17 03:05:29;;;;;;;;;26.50;24.50;;;;;;;;6491232;46;8861;-65
2023/11/17 03:11:32;;;;;;;;;20.00;17.75;;;;;;;;6490263;31;8877;-64
2023/11/17 03:17:34;;;;;;;;;22.50;21.00;;;;;;;;6490382;31;8931;-64
2023/11/17 03:23:37;;;;;;;;;21.25;20.25;;;;;;;;6490543;39;8858;-63
2023/11/17 03:29:39;;;;;;;;;25.50;23.75;;;;;;;;6490310;39;8882;-64
2023/11/17 03:35:42;;;;;;;;;26.00;23.00;;;;;;;;6489972;39;8922;-64
2023/11/17 03:41:46;;;;;;;;;49.50;43.75;;;;;;;;6489828;39;8960;-65
2023/11/17 03:47:48;;;;;;;;;44.75;37.25;;;;;;;;6490095;39;9484;-63
2023/11/17 03:53:51;;;;;;;;;44.75;40.25;;;;;;;;6490537;39;9377;-64
2023/11/17 03:59:54;;;;;;;;;49.00;40.75;;;;;;;;6489472;46;9060;-63
2023/11/17 04:05:56;;;;;;;;;48.50;43.75;;;;;;;;6489742;39;8937;-64
2023/11/17 04:12:02;;;;;;;;;52.00;43.00;;;;;;;;6489983;47;9086;-63
2023/11/17 04:18:06;;;;;;;;;40.50;38.75;;;;;;;;6489179;47;8830;-64
2023/11/17 04:24:08;;;;;;;;;45.00;40.50;;;;;;;;6489601;39;8934;-63
2023/11/17 04:30:11;;;;;;;;;40.25;35.25;;;;;;;;6489623;39;8940;-63
2023/11/17 04:36:16;;;;;;;;;43.75;36.50;;;;;;;;6489939;39;8965;-63
2023/11/17 04:42:18;;;;;;;;;46.50;41.25;;;;;;;;6490051;39;8886;-63
2023/11/17 04:48:20;;;;;;;;;40.50;40.00;;;;;;;;6490210;46;8913;-64
2023/11/17 04:54:23;;;;;;;;;50.00;40.75;;;;;;;;6491882;39;8957;-64
2023/11/17 05:00:26;;;;;;;;;44.25;38.25;;;;;;;;6490622;46;8941;-64
2023/11/17 05:06:28;;;;;;;;;44.50;40.00;;;;;;;;6466715;46;8962;-61
2023/11/17 05:12:30;;;;;;;;;42.75;40.25;;;;;;;;6492787;39;8930;-60
2023/11/17 05:18:33;;;;;;;;;44.25;37.25;;;;;;;;6493295;31;8851;-60
